Time;durP1;ratioP1;P1;durP2;ratioP2;P2;SDS_P1;SDS_P2;PMS_P1;PMS_P2;Temp;Humidity;BMP_temperature;BMP_pressure;BME280_temperature;BME280_humidity;BME280_pressure;Samples;Min_cycle;Max_cycle;Signal;HPM_P1;HPM_P2
2023/09/20 00:00:12;;;;;;;2.90;1.40;;;;;;;;;;4992373;28;20034;-67
2023/09/20 00:02:39;;;;;;;1.50;1.20;;;;;;;;;;4996867;28;20030;-67
2023/09/20 00:05:12;;;;;;;2.38;1.10;;;;;;;;;;4995569;28;20773;-66
2023/09/20 00:07:38;;;;;;;1.48;1.30;;;;;;;;;;4992612;28;20038;-67
2023/09/20 00:10:04;;;;;;;1.23;1.00;;;;;;;;;;4990146;28;20026;-67
2023/09/20 00:12:30;;;;;;;2.40;1.40;;;;;;;;;;4998290;28;20061;-67
2023/09/20 00:14:55;;;;;;;1.73;1.23;;;;;;;;;;4996023;28;20034;-67
2023/09/20 00:17:21;;;;;;;2.78;1.30;;;;;;;;;;4996207;28;20022;-67
2023/09/20 00:19:46;;;;;;;2.67;1.15;;;;;;;;;;4992208;28;20100;-66
2023/09/20 00:22:13;;;;;;;3.90;1.52;;;;;;;;;;4995336;28;20049;-66
2023/09/20 00:24:38;;;;;;;1.73;1.30;;;;;;;;;;4986983;28;20030;-66
2023/09/20 00:27:04;;;;;;;2.38;1.30;;;;;;;;;;4996850;28;20038;-66
2023/09/20 00:29:29;;;;;;;3.10;1.30;;;;;;;;;;4993227;28;20030;-66
2023/09/20 00:31:55;;;;;;;3.00;1.30;;;;;;;;;;4991672;28;20039;-66
2023/09/20 00:34:21;;;;;;;2.05;1.20;;;;;;;;;;4992230;28;20471;-66
2023/09/20 00:36:46;;;;;;;2.97;1.23;;;;;;;;;;4994197;28;20412;-67
2023/09/20 00:39:13;;;;;;;2.75;1.30;;;;;;;;;;5001612;28;20097;-66
2023/09/20 00:41:38;;;;;;;1.75;1.33;;;;;;;;;;4981937;28;20042;-67
2023/09/20 00:44:04;;;;;;;2.83;1.52;;;;;;;;;;4986228;28;20034;-67
2023/09/20 00:46:31;;;;;;;2.92;1.40;;;;;;;;;;4991046;28;20569;-67
2023/09/20 00:48:57;;;;;;;1.60;1.50;;;;;;;;;;4995130;28;20123;-67
2023/09/20 00:51:25;;;;;;;3.90;1.45;;;;;;;;;;4990481;28;20086;-66
2023/09/20 00:53:53;;;;;;;2.58;1.35;;;;;;;;;;4990768;28;20555;-66
2023/09/20 00:56:18;;;;;;;2.13;1.50;;;;;;;;;;4988108;28;20037;-67
2023/09/20 00:58:45;;;;;;;2.25;1.40;;;;;;;;;;4989628;28;20034;-66
2023/09/20 01:01:11;;;;;;;4.18;1.50;;;;;;;;;;4996382;28;20046;-67
2023/09/20 01:03:37;;;;;;;2.08;1.40;;;;;;;;;;4997220;28;20022;-66
2023/09/20 01:06:08;;;;;;;5.47;1.50;;;;;;;;;;4994133;28;20475;-67
2023/09/20 01:08:34;;;;;;;3.67;1.48;;;;;;;;;;4990705;28;20030;-66
2023/09/20 01:11:00;;;;;;;2.45;1.40;;;;;;;;;;4995706;28;20065;-66
2023/09/20 01:13:26;;;;;;;2.20;1.42;;;;;;;;;;4994854;28;20030;-66
2023/09/20 01:15:52;;;;;;;2.63;1.40;;;;;;;;;;4987487;28;20053;-66
2023/09/20 01:18:18;;;;;;;2.17;1.60;;;;;;;;;;4995098;28;20026;-66
2023/09/20 01:20:43;;;;;;;6.72;1.67;;;;;;;;;;4987440;28;20052;-66
2023/09/20 01:23:09;;;;;;;4.60;1.95;;;;;;;;;;4995658;28;20030;-66
2023/09/20 01:25:40;;;;;;;2.60;1.40;;;;;;;;;;4996382;28;20046;-66
2023/09/20 01:28:07;;;;;;;2.25;1.48;;;;;;;;;;4994796;28;20045;-66
2023/09/20 01:30:35;;;;;;;4.55;1.67;;;;;;;;;;4995541;28;20518;-66
2023/09/20 01:33:05;;;;;;;4.07;2.42;;;;;;;;;;4993387;28;20064;-66
2023/09/20 01:35:31;;;;;;;1.65;1.45;;;;;;;;;;4993737;28;20049;-66
2023/09/20 01:37:58;;;;;;;3.55;1.52;;;;;;;;;;4982874;28;20030;-66
2023/09/20 01:40:28;;;;;;;2.45;1.50;;;;;;;;;;4984952;28;20234;-66
2023/09/20 01:42:56;;;;;;;2.13;1.60;;;;;;;;;;4995000;28;20034;-66
2023/09/20 01:45:22;;;;;;;1.35;1.23;;;;;;;;;;4984937;28;20039;-66
2023/09/20 01:48:06;;;;;;;3.40;1.40;;;;;;;;;;4982955;28;20030;-66
2023/09/20 01:50:32;;;;;;;2.53;1.70;;;;;;;;;;4985447;28;20042;-66
2023/09/20 01:52:59;;;;;;;2.45;1.38;;;;;;;;;;4990691;28;20030;-66
2023/09/20 01:55:27;;;;;;;3.75;2.05;;;;;;;;;;4987795;28;20072;-66
2023/09/20 01:57:55;;;;;;;4.93;1.35;;;;;;;;;;4978699;28;20102;-66
2023/09/20 02:00:22;;;;;;;3.72;1.70;;;;;;;;;;4992787;28;20173;-67
2023/09/20 02:02:55;;;;;;;2.50;1.50;;;;;;;;;;4996156;28;20469;-66
2023/09/20 02:05:23;;;;;;;1.80;1.35;;;;;;;;;;4995465;28;20591;-66
2023/09/20 02:07:50;;;;;;;2.38;1.40;;;;;;;;;;4992850;28;20472;-66
2023/09/20 02:10:16;;;;;;;2.17;1.48;;;;;;;;;;4992060;28;20106;-67
2023/09/20 02:12:51;;;;;;;2.08;1.70;;;;;;;;;;4986115;28;20042;-66
2023/09/20 02:15:17;;;;;;;3.35;1.70;;;;;;;;;;4973609;28;20093;-66
2023/09/20 02:17:44;;;;;;;2.60;1.33;;;;;;;;;;4995168;28;20046;-66
2023/09/20 02:20:11;;;;;;;1.60;1.25;;;;;;;;;;4990817;28;20077;-66
2023/09/20 02:22:40;;;;;;;2.40;1.60;;;;;;;;;;4991416;28;20026;-66
2023/09/20 02:25:12;;;;;;;5.07;2.33;;;;;;;;;;4994008;28;20628;-66
2023/09/20 02:27:43;;;;;;;4.82;1.45;;;;;;;;;;4988437;28;20022;-66
2023/09/20 02:30:15;;;;;;;2.55;1.30;;;;;;;;;;4992901;28;20036;-66
2023/09/20 02:32:43;;;;;;;;;;;;;;;;;;4990521;28;20034;-66
2023/09/20 02:35:09;;;;;;;3.78;1.48;;;;;;;;;;4986735;28;19909;-66
2023/09/20 02:37:36;;;;;;;3.53;1.80;;;;;;;;;;4987840;28;20038;-66
2023/09/20 02:40:13;;;;;;;2.30;1.50;;;;;;;;;;4987562;28;20029;-66
2023/09/20 02:43:10;;;;;;;2.40;1.60;;;;;;;;;;4994330;28;20034;-67
2023/09/20 02:45:39;;;;;;;3.42;1.30;;;;;;;;;;4984444;28;20090;-66
2023/09/20 02:48:06;;;;;;;2.10;1.50;;;;;;;;;;4989996;28;20026;-66
2023/09/20 02:50:32;;;;;;;3.58;1.30;;;;;;;;;;4987308;28;20045;-66
2023/09/20 02:52:58;;;;;;;2.10;1.30;;;;;;;;;;4993119;28;20555;-66
2023/09/20 02:55:24;;;;;;;2.70;1.65;;;;;;;;;;4994703;28;20046;-66
2023/09/20 02:57:54;;;;;;;2.67;1.60;;;;;;;;;;4988122;28;20022;-66
2023/09/20 03:00:22;;;;;;;2.92;1.35;;;;;;;;;;4996517;28;20119;-66
2023/09/20 03:02:49;;;;;;;2.08;1.40;;;;;;;;;;4995763;28;20027;-66
2023/09/20 03:05:23;;;;;;;2.83;1.52;;;;;;;;;;4987019;28;20054;-66
2023/09/20 03:07:50;;;;;;;3.10;1.85;;;;;;;;;;4995706;28;20027;-67
2023/09/20 03:10:21;;;;;;;1.98;1.48;;;;;;;;;;4993573;28;20034;-66
2023/09/20 03:12:47;;;;;;;2.47;1.55;;;;;;;;;;4996201;28;20090;-66
2023/09/20 03:15:17;;;;;;;2.28;1.30;;;;;;;;;;4996606;28;20035;-67
2023/09/20 03:17:44;;;;;;;2.33;1.52;;;;;;;;;;4988756;28;20022;-66
2023/09/20 03:20:16;;;;;;;4.25;1.92;;;;;;;;;;4996256;28;20050;-66
2023/09/20 03:22:42;;;;;;;1.95;1.30;;;;;;;;;;4991002;28;20453;-66
2023/09/20 03:25:14;;;;;;;1.95;1.30;;;;;;;;;;4994465;28;20093;-66
2023/09/20 03:27:42;;;;;;;;;;;;;;;;;;4989616;28;20436;-66
2023/09/20 03:30:10;;;;;;;4.28;1.38;;;;;;;;;;4995685;28;20358;-67
2023/09/20 03:32:36;;;;;;;4.25;1.77;;;;;;;;;;4989903;28;20033;-66
2023/09/20 03:35:02;;;;;;;3.80;1.45;;;;;;;;;;4995204;28;20110;-66
2023/09/20 03:37:32;;;;;;;4.00;1.80;;;;;;;;;;4993803;28;20447;-66
2023/09/20 03:39:58;;;;;;;3.25;1.48;;;;;;;;;;4982764;28;20034;-66
2023/09/20 03:42:24;;;;;;;3.22;1.65;;;;;;;;;;4987596;28;20116;-67
2023/09/20 03:44:50;;;;;;;4.03;1.80;;;;;;;;;;4990609;28;20073;-66
2023/09/20 03:47:16;;;;;;;2.50;1.42;;;;;;;;;;4988329;28;20722;-66
2023/09/20 03:49:42;;;;;;;4.07;1.88;;;;;;;;;;4994939;28;20476;-66
2023/09/20 03:52:07;;;;;;;2.63;1.58;;;;;;;;;;4996773;28;20145;-66
2023/09/20 03:54:33;;;;;;;5.78;1.73;;;;;;;;;;4998224;28;20026;-67
2023/09/20 03:56:59;;;;;;;4.40;1.70;;;;;;;;;;5003310;28;20751;-66
2023/09/20 03:59:26;;;;;;;1.90;1.40;;;;;;;;;;5025902;28;20034;-66
2023/09/20 04:01:52;;;;;;;2.17;1.55;;;;;;;;;;4992242;28;20053;-67
2023/09/20 04:04:17;;;;;;;3.28;1.58;;;;;;;;;;4992340;28;20477;-66
2023/09/20 04:06:44;;;;;;;2.47;1.67;;;;;;;;;;4992453;28;20046;-66
2023/09/20 04:09:10;;;;;;;2.25;1.70;;;;;;;;;;4996353;28;20401;-67
2023/09/20 04:11:42;;;;;;;2.28;1.52;;;;;;;;;;4995189;28;20129;-66
2023/09/20 04:14:08;;;;;;;2.92;1.60;;;;;;;;;;4988110;28;20034;-67
2023/09/20 04:16:37;;;;;;;3.10;1.55;;;;;;;;;;4984139;28;20061;-66
2023/09/20 04:19:04;;;;;;;2.55;1.60;;;;;;;;;;4988647;28;20082;-66
2023/09/20 04:21:29;;;;;;;4.00;1.73;;;;;;;;;;4982220;28;20054;-66
2023/09/20 04:23:55;;;;;;;2.65;1.50;;;;;;;;;;4995306;28;20022;-67
2023/09/20 04:26:20;;;;;;;2.97;1.73;;;;;;;;;;4987028;28;20042;-66
2023/09/20 04:28:48;;;;;;;3.75;1.65;;;;;;;;;;4995689;28;20054;-66
2023/09/20 04:31:13;;;;;;;5.18;1.77;;;;;;;;;;4992140;28;20118;-66
2023/09/20 04:33:39;;;;;;;3.35;1.35;;;;;;;;;;4988498;28;20026;-66
2023/09/20 04:36:04;;;;;;;2.60;1.50;;;;;;;;;;4989606;28;20035;-66
2023/09/20 04:38:30;;;;;;;3.38;1.83;;;;;;;;;;4993605;28;20528;-66
2023/09/20 04:40:56;;;;;;;5.10;1.60;;;;;;;;;;4995028;28;20074;-66
2023/09/20 04:43:22;;;;;;;3.05;1.70;;;;;;;;;;4997361;28;20376;-67
2023/09/20 04:45:47;;;;;;;3.85;1.67;;;;;;;;;;4995244;28;20134;-66
2023/09/20 04:48:13;;;;;;;4.18;1.38;;;;;;;;;;4992729;28;20392;-66
2023/09/20 04:50:38;;;;;;;4.63;1.42;;;;;;;;;;4988022;28;20193;-66
2023/09/20 04:53:04;;;;;;;2.47;1.52;;;;;;;;;;4990999;28;20028;-66
2023/09/20 04:55:33;;;;;;;4.70;1.55;;;;;;;;;;4991037;28;20034;-66
2023/09/20 04:57:59;;;;;;;2.85;1.65;;;;;;;;;;4994686;28;20042;-66
2023/09/20 05:00:33;;;;;;;2.35;1.45;;;;;;;;;;4987897;28;20043;-66
2023/09/20 05:02:59;;;;;;;5.20;1.48;;;;;;;;;;4992853;28;20058;-66
2023/09/20 05:05:25;;;;;;;2.50;1.45;;;;;;;;;;4986778;28;20038;-67
2023/09/20 05:07:52;;;;;;;2.13;1.30;;;;;;;;;;4996156;28;20093;-66
2023/09/20 05:10:18;;;;;;;3.75;1.55;;;;;;;;;;4989201;28;20105;-66
2023/09/20 05:12:43;;;;;;;3.28;1.45;;;;;;;;;;4996356;28;20030;-66
2023/09/20 05:15:12;;;;;;;6.70;1.63;;;;;;;;;;4994709;28;20041;-66
2023/09/20 05:17:37;;;;;;;2.28;1.60;;;;;;;;;;4995807;28;20092;-67
2023/09/20 05:20:05;;;;;;;2.17;1.23;;;;;;;;;;4990137;28;20058;-66
2023/09/20 05:22:30;;;;;;;3.05;1.65;;;;;;;;;;4978050;28;20034;-66
2023/09/20 05:24:57;;;;;;;2.45;1.52;;;;;;;;;;4991101;28;20507;-66
2023/09/20 05:27:23;;;;;;;4.95;1.52;;;;;;;;;;4985864;28;20038;-66
2023/09/20 05:29:50;;;;;;;2.88;1.73;;;;;;;;;;4995737;28;20104;-66
2023/09/20 05:32:16;;;;;;;5.13;2.05;;;;;;;;;;4994078;28;20034;-66
2023/09/20 05:34:42;;;;;;;3.30;1.55;;;;;;;;;;4992207;28;20528;-66
2023/09/20 05:37:08;;;;;;;7.32;1.38;;;;;;;;;;4994218;28;20038;-66
2023/09/20 05:39:34;;;;;;;2.80;2.17;;;;;;;;;;4993758;28;20062;-66
2023/09/20 05:42:01;;;;;;;1.63;1.30;;;;;;;;;;4987654;28;20615;-66
2023/09/20 05:44:30;;;;;;;3.10;1.83;;;;;;;;;;4994554;28;20030;-66
2023/09/20 05:46:55;;;;;;;3.20;1.55;;;;;;;;;;4992130;28;20080;-66
2023/09/20 05:49:22;;;;;;;1.73;1.38;;;;;;;;;;4990687;28;20113;-67
2023/09/20 05:51:50;;;;;;;5.22;1.73;;;;;;;;;;4985756;28;20038;-66
2023/09/20 05:54:19;;;;;;;3.28;1.58;;;;;;;;;;4995217;28;20026;-66
2023/09/20 05:56:45;;;;;;;2.88;1.77;;;;;;;;;;4994837;28;20035;-66
2023/09/20 05:59:11;;;;;;;3.70;1.77;;;;;;;;;;4992736;28;20552;-66
2023/09/20 06:01:40;;;;;;;3.38;1.65;;;;;;;;;;4995492;28;20046;-66
2023/09/20 06:04:12;;;;;;;3.97;1.45;;;;;;;;;;4995606;28;20042;-66
2023/09/20 06:06:38;;;;;;;4.68;1.42;;;;;;;;;;4992444;28;20034;-66
2023/09/20 06:09:04;;;;;;;4.72;1.52;;;;;;;;;;4993188;28;20034;-66
2023/09/20 06:11:29;;;;;;;5.45;1.95;;;;;;;;;;4985020;28;20050;-66
2023/09/20 06:13:55;;;;;;;2.92;1.60;;;;;;;;;;4985734;28;20088;-66
2023/09/20 06:16:22;;;;;;;3.58;1.55;;;;;;;;;;4979588;28;20130;-66
2023/09/20 06:18:48;;;;;;;3.08;1.55;;;;;;;;;;4994875;28;20085;-66
2023/09/20 06:21:17;;;;;;;2.55;1.58;;;;;;;;;;4987489;28;20038;-66
2023/09/20 06:23:45;;;;;;;3.47;1.70;;;;;;;;;;4991941;28;20055;-66
2023/09/20 06:26:12;;;;;;;4.22;1.70;;;;;;;;;;4992137;28;20054;-66
2023/09/20 06:28:48;;;;;;;5.70;1.50;;;;;;;;;;4996092;28;20050;-66
2023/09/20 06:31:15;;;;;;;3.35;1.45;;;;;;;;;;4989724;28;20126;-66
2023/09/20 06:33:42;;;;;;;3.67;1.85;;;;;;;;;;4991150;28;20085;-66
2023/09/20 06:36:08;;;;;;;4.82;1.52;;;;;;;;;;4990056;28;21072;-66
2023/09/20 06:38:34;;;;;;;2.35;1.55;;;;;;;;;;4994744;28;20065;-67
2023/09/20 06:41:00;;;;;;;6.00;1.60;;;;;;;;;;4987190;28;20498;-66
2023/09/20 06:43:26;;;;;;;4.28;1.60;;;;;;;;;;4993125;28;20089;-66
2023/09/20 06:45:52;;;;;;;2.75;1.30;;;;;;;;;;4991409;28;20050;-65
2023/09/20 06:48:24;;;;;;;4.45;1.50;;;;;;;;;;4991264;28;20468;-66
2023/09/20 06:50:50;;;;;;;3.20;1.30;;;;;;;;;;4996957;28;20420;-66
2023/09/20 06:53:17;;;;;;;2.03;1.30;;;;;;;;;;4996608;28;20030;-66
2023/09/20 06:55:43;;;;;;;3.50;1.67;;;;;;;;;;4997847;28;20042;-66
2023/09/20 06:58:09;;;;;;;3.63;1.67;;;;;;;;;;4997626;28;20408;-66
2023/09/20 07:00:35;;;;;;;9.52;1.95;;;;;;;;;;4993905;28;20041;-65
2023/09/20 07:03:02;;;;;;;6.70;1.85;;;;;;;;;;4992157;28;20019;-65
2023/09/20 07:05:28;;;;;;;7.43;2.40;;;;;;;;;;4990166;28;20043;-66
2023/09/20 07:07:54;;;;;;;9.00;2.20;;;;;;;;;;4988143;28;20034;-65
2023/09/20 07:10:21;;;;;;;12.70;3.20;;;;;;;;;;4992037;28;20034;-67
2023/09/20 07:12:46;;;;;;;22.80;2.58;;;;;;;;;;4989933;28;20102;-68
2023/09/20 07:15:16;;;;;;;16.40;2.40;;;;;;;;;;4988422;28;20124;-68
2023/09/20 07:17:42;;;;;;;17.00;3.00;;;;;;;;;;5020707;28;20485;-69
2023/09/20 07:20:14;;;;;;;17.00;3.00;;;;;;;;;;4984985;28;20047;-67
2023/09/20 07:22:41;;;;;;;13.40;2.65;;;;;;;;;;4984469;28;20116;-68
2023/09/20 07:25:08;;;;;;;10.95;2.78;;;;;;;;;;4987093;28;20114;-67
2023/09/20 07:27:33;;;;;;;12.45;3.08;;;;;;;;;;4983865;28;20042;-67
2023/09/20 07:30:04;;;;;;;15.55;2.40;;;;;;;;;;4996695;28;20030;-67
2023/09/20 07:32:30;;;;;;;13.35;2.28;;;;;;;;;;4989536;28;20034;-66
2023/09/20 07:34:59;;;;;;;12.43;3.17;;;;;;;;;;5007426;28;20046;-71
2023/09/20 07:37:25;;;;;;;10.30;2.15;;;;;;;;;;4990341;28;20034;-71
2023/09/20 07:39:51;;;;;;;13.07;2.30;;;;;;;;;;4989713;28;20026;-71
2023/09/20 07:42:16;;;;;;;14.13;2.70;;;;;;;;;;4964157;28;20456;-71
2023/09/20 07:44:43;;;;;;;20.85;3.20;;;;;;;;;;4967495;28;20027;-71
2023/09/20 07:47:09;;;;;;;13.98;3.08;;;;;;;;;;4990890;28;20034;-71
2023/09/20 07:49:36;;;;;;;14.98;2.85;;;;;;;;;;4997579;28;20483;-71
2023/09/20 07:52:04;;;;;;;15.43;3.13;;;;;;;;;;4987521;28;20649;-71
2023/09/20 07:54:29;;;;;;;27.42;3.53;;;;;;;;;;4993047;28;20034;-71
2023/09/20 07:56:55;;;;;;;19.30;3.78;;;;;;;;;;4991127;28;20035;-72
2023/09/20 07:59:23;;;;;;;17.52;2.75;;;;;;;;;;4987178;28;20037;-66
2023/09/20 08:01:50;;;;;;;15.40;2.20;;;;;;;;;;4983616;28;20038;-70
2023/09/20 08:04:18;;;;;;;19.20;3.25;;;;;;;;;;4985680;28;20034;-69
2023/09/20 08:06:44;;;;;;;15.98;2.95;;;;;;;;;;4986038;28;20045;-69
2023/09/20 08:09:09;;;;;;;16.50;2.95;;;;;;;;;;4984054;28;20030;-70
2023/09/20 08:11:35;;;;;;;9.00;2.85;;;;;;;;;;4981516;28;20049;-69
2023/09/20 08:14:05;;;;;;;10.20;2.30;;;;;;;;;;4996185;28;20038;-69
2023/09/20 08:16:34;;;;;;;16.30;3.15;;;;;;;;;;4987705;28;20037;-68
2023/09/20 08:19:06;;;;;;;9.18;2.20;;;;;;;;;;4992634;28;20617;-69
2023/09/20 08:21:32;;;;;;;10.70;2.67;;;;;;;;;;4994653;28;20030;-68
2023/09/20 08:59:52;;;;;;;3.83;1.67;;;;;;;;;;4994686;28;20547;-69
2023/09/20 09:02:17;;;;;;;9.68;1.92;;;;;;;;;;4990557;28;20400;-69
2023/09/20 09:04:48;;;;;;;4.13;1.67;;;;;;;;;;4978088;28;20035;-69
2023/09/20 09:07:14;;;;;;;2.35;1.13;;;;;;;;;;4992985;28;20476;-69
2023/09/20 09:09:40;;;;;;;2.42;1.30;;;;;;;;;;4987355;28;20041;-69
2023/09/20 09:12:07;;;;;;;4.35;1.52;;;;;;;;;;4989803;28;20088;-68
2023/09/20 09:14:35;;;;;;;2.45;1.25;;;;;;;;;;4992116;28;20520;-68
2023/09/20 09:17:06;;;;;;;3.67;1.20;;;;;;;;;;4991515;28;20117;-69
2023/09/20 09:19:32;;;;;;;3.55;1.70;;;;;;;;;;4988915;28;20500;-69
2023/09/20 09:21:58;;;;;;;2.38;1.30;;;;;;;;;;4991839;28;20040;-69
2023/09/20 09:24:24;;;;;;;2.33;1.27;;;;;;;;;;4995522;28;20460;-69
2023/09/20 09:27:02;;;;;;;4.68;1.73;;;;;;;;;;4980758;28;20038;-69
2023/09/20 10:05:29;;;;;;;16.23;1.60;;;;;;;;;;4992485;28;20050;-69
2023/09/20 10:08:01;;;;;;;3.80;1.40;;;;;;;;;;4994651;28;20031;-69
2023/09/20 10:10:27;;;;;;;3.30;1.63;;;;;;;;;;4990344;28;20047;-69
2023/09/20 10:12:53;;;;;;;2.00;1.35;;;;;;;;;;4994679;28;20035;-70
2023/09/20 10:15:19;;;;;;;3.25;1.30;;;;;;;;;;4985119;28;20038;-70
2023/09/20 10:17:59;;;;;;;4.93;1.60;;;;;;;;;;4986266;28;20026;-70
2023/09/20 10:20:54;;;;;;;6.55;1.30;;;;;;;;;;4988803;28;20574;-68
2023/09/20 10:23:22;;;;;;;6.03;1.25;;;;;;;;;;4988949;28;20053;-69
2023/09/20 10:25:48;;;;;;;4.28;1.27;;;;;;;;;;4990541;28;20142;-69
2023/09/20 10:28:16;;;;;;;3.20;1.38;;;;;;;;;;4992860;28;20461;-69
2023/09/20 10:31:04;;;;;;;4.28;1.13;;;;;;;;;;4989818;28;20119;-70
2023/09/20 10:33:44;;;;;;;2.10;1.30;;;;;;;;;;4994038;28;20564;-71
2023/09/20 10:36:12;;;;;;;2.65;1.10;;;;;;;;;;4994017;28;20040;-71
2023/09/20 10:38:40;;;;;;;3.22;1.38;;;;;;;;;;4988194;28;20040;-70
2023/09/20 10:41:07;;;;;;;4.00;1.20;;;;;;;;;;4988190;28;20038;-71
2023/09/20 10:43:36;;;;;;;2.47;1.38;;;;;;;;;;4975163;28;20029;-70
2023/09/20 10:46:14;;;;;;;3.22;1.30;;;;;;;;;;4992152;28;20527;-70
2023/09/20 10:48:41;;;;;;;8.13;1.30;;;;;;;;;;4992209;28;20549;-70
2023/09/20 10:51:07;;;;;;;2.67;1.50;;;;;;;;;;4986895;28;20035;-70
2023/09/20 10:53:41;;;;;;;5.03;1.50;;;;;;;;;;4987444;28;20025;-71
2023/09/20 10:56:08;;;;;;;4.28;1.40;;;;;;;;;;4986431;28;20097;-73
2023/09/20 10:58:33;;;;;;;5.65;1.83;;;;;;;;;;4989581;28;20109;-70
2023/09/20 11:00:59;;;;;;;5.15;1.70;;;;;;;;;;4986395;28;20069;-70
2023/09/20 11:03:24;;;;;;;2.28;1.30;;;;;;;;;;4990021;28;20030;-69
2023/09/20 11:05:50;;;;;;;4.00;1.45;;;;;;;;;;4985006;28;20125;-68
2023/09/20 11:08:15;;;;;;;11.18;1.55;;;;;;;;;;4988216;28;20042;-68
2023/09/20 11:10:41;;;;;;;1.42;1.20;;;;;;;;;;4988746;28;20094;-69
2023/09/20 11:13:11;;;;;;;2.17;1.40;;;;;;;;;;4997114;28;20049;-68
2023/09/20 11:15:43;;;;;;;7.78;1.40;;;;;;;;;;4993415;28;20501;-68
2023/09/20 11:18:09;;;;;;;5.15;1.52;;;;;;;;;;4989605;28;20021;-69
2023/09/20 11:20:36;;;;;;;1.75;1.30;;;;;;;;;;4987197;28;20043;-70
2023/09/20 11:23:04;;;;;;;1.55;1.35;;;;;;;;;;4983252;28;20034;-70
2023/09/20 11:25:30;;;;;;;1.35;0.93;;;;;;;;;;4989933;28;20101;-70
2023/09/20 11:27:56;;;;;;;5.93;1.10;;;;;;;;;;4993920;28;20035;-70
2023/09/20 11:30:27;;;;;;;2.08;1.27;;;;;;;;;;4989968;28;20039;-70
2023/09/20 11:32:55;;;;;;;2.97;1.33;;;;;;;;;;4994302;28;20030;-70
2023/09/20 11:35:36;;;;;;;6.45;1.50;;;;;;;;;;4993899;28;20046;-70
2023/09/20 11:38:06;;;;;;;3.58;1.63;;;;;;;;;;4990161;28;20078;-69
2023/09/20 11:40:34;;;;;;;2.13;1.40;;;;;;;;;;4995481;28;20044;-69
2023/09/20 11:43:02;;;;;;;1.08;1.02;;;;;;;;;;4991041;28;20033;-69
2023/09/20 11:45:28;;;;;;;1.80;1.20;;;;;;;;;;4992266;28;20046;-69
2023/09/20 11:47:54;;;;;;;2.38;1.58;;;;;;;;;;4990809;28;20026;-69
2023/09/20 11:50:24;;;;;;;2.60;1.38;;;;;;;;;;4991676;28;20047;-69
2023/09/20 11:52:50;;;;;;;4.43;1.60;;;;;;;;;;4989032;28;20106;-69
2023/09/20 11:55:16;;;;;;;4.93;1.60;;;;;;;;;;4993216;28;20550;-69
2023/09/20 11:57:42;;;;;;;5.40;1.50;;;;;;;;;;4995010;28;20060;-69
2023/09/20 12:00:14;;;;;;;2.25;1.05;;;;;;;;;;4996481;28;20040;-69
2023/09/20 12:02:40;;;;;;;1.67;1.23;;;;;;;;;;4998391;28;20459;-69
2023/09/20 12:05:07;;;;;;;2.63;1.23;;;;;;;;;;4989254;28;20026;-69
2023/09/20 12:07:33;;;;;;;2.20;1.45;;;;;;;;;;4995163;28;20030;-69
2023/09/20 12:09:58;;;;;;;1.90;1.27;;;;;;;;;;4988283;28;20041;-69
2023/09/20 12:12:24;;;;;;;1.58;1.20;;;;;;;;;;4990541;28;20039;-69
2023/09/20 12:14:49;;;;;;;1.85;1.30;;;;;;;;;;4993559;28;20026;-69
2023/09/20 12:17:14;;;;;;;1.77;1.38;;;;;;;;;;4997247;28;20034;-70
2023/09/20 12:19:41;;;;;;;2.72;1.40;;;;;;;;;;4996473;28;20066;-69
2023/09/20 12:22:07;;;;;;;2.13;1.30;;;;;;;;;;4997385;28;20034;-69
2023/09/20 12:24:33;;;;;;;2.58;1.30;;;;;;;;;;4996169;28;20034;-69
2023/09/20 12:26:58;;;;;;;4.10;1.42;;;;;;;;;;4998116;28;20419;-69
2023/09/20 12:29:24;;;;;;;2.20;1.20;;;;;;;;;;4995295;28;20515;-69
2023/09/20 12:31:50;;;;;;;1.75;1.38;;;;;;;;;;4996933;28;20037;-69
2023/09/20 12:34:16;;;;;;;4.03;1.40;;;;;;;;;;4983676;28;20026;-70
2023/09/20 12:36:42;;;;;;;1.98;1.15;;;;;;;;;;4981467;28;20097;-69
2023/09/20 12:39:10;;;;;;;1.65;1.20;;;;;;;;;;4986013;28;20030;-70
2023/09/20 12:41:37;;;;;;;2.78;1.42;;;;;;;;;;4981975;28;20038;-70
2023/09/20 12:44:04;;;;;;;2.47;1.52;;;;;;;;;;4992079;28;20045;-70
2023/09/20 12:46:31;;;;;;;1.80;1.10;;;;;;;;;;4986657;28;20125;-70
2023/09/20 12:48:57;;;;;;;3.70;1.10;;;;;;;;;;4995801;28;20026;-70
2023/09/20 12:51:24;;;;;;;2.42;1.30;;;;;;;;;;4991962;28;20038;-70
2023/09/20 12:53:50;;;;;;;2.00;1.58;;;;;;;;;;4990342;28;20109;-70
2023/09/20 12:56:16;;;;;;;5.00;1.60;;;;;;;;;;4985817;28;20061;-70
2023/09/20 12:58:41;;;;;;;2.50;1.25;;;;;;;;;;4986918;28;20105;-69
2023/09/20 13:01:10;;;;;;;2.75;1.23;;;;;;;;;;4993111;28;20100;-70
2023/09/20 13:03:43;;;;;;;1.55;1.25;;;;;;;;;;4990353;28;20045;-70
2023/09/20 13:06:09;;;;;;;2.83;1.65;;;;;;;;;;4985371;28;20050;-70
2023/09/20 13:08:37;;;;;;;1.48;1.17;;;;;;;;;;4990091;28;20121;-69
2023/09/20 13:11:05;;;;;;;2.67;1.33;;;;;;;;;;4994264;28;20501;-70
2023/09/20 13:13:31;;;;;;;4.28;1.42;;;;;;;;;;4976020;28;20085;-70
2023/09/20 13:15:57;;;;;;;1.60;1.20;;;;;;;;;;4987751;28;20557;-70
2023/09/20 13:18:22;;;;;;;2.45;1.20;;;;;;;;;;4992442;28;20030;-70
2023/09/20 13:20:48;;;;;;;1.67;1.58;;;;;;;;;;4990333;28;20042;-70
2023/09/20 13:23:14;;;;;;;2.83;1.50;;;;;;;;;;4994567;28;20026;-70
2023/09/20 13:25:41;;;;;;;2.50;1.40;;;;;;;;;;4991487;28;20043;-70
2023/09/20 13:28:08;;;;;;;2.20;1.65;;;;;;;;;;4980520;28;20038;-70
2023/09/20 13:30:35;;;;;;;2.60;1.42;;;;;;;;;;4984675;28;20038;-70
2023/09/20 13:33:01;;;;;;;4.13;1.60;;;;;;;;;;4984886;28;20454;-69
2023/09/20 13:35:27;;;;;;;2.28;1.70;;;;;;;;;;4985890;28;20065;-69
2023/09/20 13:37:53;;;;;;;2.67;1.42;;;;;;;;;;4988413;28;20350;-69
2023/09/20 13:40:21;;;;;;;2.58;1.58;;;;;;;;;;4987808;28;20030;-69
2023/09/20 13:42:46;;;;;;;1.55;1.35;;;;;;;;;;4993120;28;20365;-68
2023/09/20 13:45:14;;;;;;;5.50;1.60;;;;;;;;;;4996518;28;20033;-68
2023/09/20 13:47:41;;;;;;;1.70;1.25;;;;;;;;;;4993815;28;20090;-70
2023/09/20 13:50:08;;;;;;;2.22;1.70;;;;;;;;;;4993691;28;20028;-68
2023/09/20 13:52:34;;;;;;;2.22;1.35;;;;;;;;;;4995728;28;20026;-68
2023/09/20 13:55:00;;;;;;;2.25;1.30;;;;;;;;;;4992119;28;20038;-68
2023/09/20 13:57:25;;;;;;;2.65;1.73;;;;;;;;;;4984827;28;20058;-69
2023/09/20 13:59:54;;;;;;;2.17;1.67;;;;;;;;;;4990432;28;20038;-70
2023/09/20 14:02:21;;;;;;;2.13;1.70;;;;;;;;;;4980140;28;20050;-69
2023/09/20 14:04:46;;;;;;;1.58;1.48;;;;;;;;;;4981850;28;20700;-69
2023/09/20 14:07:12;;;;;;;5.60;1.50;;;;;;;;;;4994947;28;20055;-69
2023/09/20 14:09:42;;;;;;;5.00;1.88;;;;;;;;;;4995482;28;20040;-69
2023/09/20 14:12:12;;;;;;;3.40;1.60;;;;;;;;;;4983981;28;20513;-69
2023/09/20 14:14:37;;;;;;;2.13;1.30;;;;;;;;;;4993864;28;20033;-69
2023/09/20 14:17:06;;;;;;;2.70;1.50;;;;;;;;;;4991940;28;20031;-69
2023/09/20 14:19:32;;;;;;;3.28;1.60;;;;;;;;;;4987329;28;20050;-67
2023/09/20 14:21:59;;;;;;;1.48;1.35;;;;;;;;;;4988518;28;20041;-68
2023/09/20 14:24:26;;;;;;;3.47;1.50;;;;;;;;;;4995534;28;20404;-69
2023/09/20 14:26:52;;;;;;;3.58;1.70;;;;;;;;;;4990163;28;20408;-70
2023/09/20 14:29:18;;;;;;;1.63;1.48;;;;;;;;;;4988306;28;20018;-72
2023/09/20 14:31:45;;;;;;;2.20;1.38;;;;;;;;;;4993823;28;20037;-70
2023/09/20 14:34:10;;;;;;;2.97;1.63;;;;;;;;;;4993934;28;20026;-71
2023/09/20 14:36:38;;;;;;;3.25;1.60;;;;;;;;;;4994487;28;20035;-71
2023/09/20 14:39:04;;;;;;;4.00;1.65;;;;;;;;;;4991376;28;20033;-69
2023/09/20 14:41:29;;;;;;;2.92;1.77;;;;;;;;;;4991709;28;20043;-70
2023/09/20 14:43:55;;;;;;;1.88;1.60;;;;;;;;;;4987561;28;20519;-68
2023/09/20 14:46:21;;;;;;;3.10;1.50;;;;;;;;;;4985051;28;20053;-69
2023/09/20 14:48:47;;;;;;;7.80;2.00;;;;;;;;;;4984814;28;20544;-71
2023/09/20 14:51:17;;;;;;;1.65;1.50;;;;;;;;;;4980045;28;20056;-69
2023/09/20 14:53:43;;;;;;;4.60;1.65;;;;;;;;;;4989213;28;20070;-69
2023/09/20 14:56:08;;;;;;;6.32;1.50;;;;;;;;;;4991312;28;20034;-69
2023/09/20 14:58:35;;;;;;;6.13;1.60;;;;;;;;;;4991320;28;20019;-70
2023/09/20 15:01:11;;;;;;;11.00;1.63;;;;;;;;;;4991858;28;20089;-69
2023/09/20 15:03:36;;;;;;;6.88;1.90;;;;;;;;;;4993583;28;20101;-69
2023/09/20 15:06:02;;;;;;;4.50;1.73;;;;;;;;;;4995115;28;20062;-69
2023/09/20 15:08:27;;;;;;;5.10;1.70;;;;;;;;;;4985784;28;20086;-69
2023/09/20 15:10:52;;;;;;;4.15;1.65;;;;;;;;;;4989543;28;20049;-70
2023/09/20 15:13:19;;;;;;;7.07;2.00;;;;;;;;;;4993859;28;20030;-69
2023/09/20 15:15:45;;;;;;;8.60;1.58;;;;;;;;;;4992766;28;20054;-69
2023/09/20 15:18:10;;;;;;;4.85;1.65;;;;;;;;;;4992493;28;20041;-69
2023/09/20 15:20:42;;;;;;;4.85;1.73;;;;;;;;;;4987612;28;20401;-69
2023/09/20 15:23:08;;;;;;;8.23;1.80;;;;;;;;;;4989073;28;20511;-69
2023/09/20 15:25:34;;;;;;;7.10;2.25;;;;;;;;;;4996844;28;20432;-69
2023/09/20 15:28:00;;;;;;;12.73;1.55;;;;;;;;;;4995261;28;20034;-70
2023/09/20 15:30:25;;;;;;;3.85;1.65;;;;;;;;;;4983251;28;20126;-70
2023/09/20 15:32:51;;;;;;;7.68;1.92;;;;;;;;;;4991945;28;20034;-69
2023/09/20 15:35:17;;;;;;;6.15;1.70;;;;;;;;;;4993659;28;20455;-69
2023/09/20 15:37:44;;;;;;;13.48;1.67;;;;;;;;;;4997264;28;20030;-69
2023/09/20 15:40:15;;;;;;;6.80;1.40;;;;;;;;;;4990276;28;20027;-69
2023/09/20 15:42:41;;;;;;;3.55;1.92;;;;;;;;;;4984798;28;20443;-70
2023/09/20 15:45:07;;;;;;;3.50;1.17;;;;;;;;;;4986083;28;20046;-72
2023/09/20 15:47:33;;;;;;;7.55;1.85;;;;;;;;;;4987983;28;20117;-70
2023/09/20 15:49:59;;;;;;;6.10;2.05;;;;;;;;;;4991906;28;20453;-69
2023/09/20 15:52:24;;;;;;;6.40;1.83;;;;;;;;;;4994223;28;20038;-70
2023/09/20 15:54:50;;;;;;;7.32;1.63;;;;;;;;;;4991149;28;20038;-71